sensor_id;sensor_type;location;lat;lon;timestamp;P1;durP1;ratioP1;P2;durP2;ratioP2
35444;SDS011;21562;49.476;6.086;2023-02-01T00:00:32;33.60;;;14.25;;
35444;SDS011;21562;49.476;6.086;2023-02-01T00:02:59;32.08;;;13.95;;
35444;SDS011;21562;49.476;6.086;2023-02-01T00:05:25;33.33;;;13.73;;
35444;SDS011;21562;49.476;6.086;2023-02-01T00:07:51;38.78;;;14.60;;
35444;SDS011;21562;49.476;6.086;2023-02-01T00:10:16;35.67;;;14.10;;
35444;SDS011;21562;49.476;6.086;2023-02-01T00:12:42;41.45;;;13.65;;
35444;SDS011;21562;49.476;6.086;2023-02-01T00:15:08;33.13;;;13.25;;
35444;SDS011;21562;49.476;6.086;2023-02-01T00:17:34;39.70;;;13.85;;
35444;SDS011;21562;49.476;6.086;2023-02-01T00:20:00;38.42;;;14.52;;
35444;SDS011;21562;49.476;6.086;2023-02-01T00:22:27;39.92;;;13.13;;
35444;SDS011;21562;49.476;6.086;2023-02-01T00:24:52;45.83;;;13.95;;
35444;SDS011;21562;49.476;6.086;2023-02-01T00:27:18;37.83;;;15.52;;
35444;SDS011;21562;49.476;6.086;2023-02-01T00:29:46;29.17;;;14.02;;
35444;SDS011;21562;49.476;6.086;2023-02-01T00:32:12;28.08;;;15.20;;
35444;SDS011;21562;49.476;6.086;2023-02-01T00:34:37;30.88;;;14.35;;
35444;SDS011;21562;49.476;6.086;2023-02-01T00:37:03;35.38;;;15.15;;
35444;SDS011;21562;49.476;6.086;2023-02-01T00:39:29;36.78;;;14.57;;
35444;SDS011;21562;49.476;6.086;2023-02-01T00:41:54;54.55;;;14.13;;
35444;SDS011;21562;49.476;6.086;2023-02-01T00:44:20;40.72;;;16.00;;
35444;SDS011;21562;49.476;6.086;2023-02-01T00:46:46;37.67;;;15.63;;
35444;SDS011;21562;49.476;6.086;2023-02-01T00:49:13;41.47;;;14.77;;
35444;SDS011;21562;49.476;6.086;2023-02-01T00:51:38;34.47;;;14.30;;
35444;SDS011;21562;49.476;6.086;2023-02-01T00:54:04;44.33;;;17.27;;
35444;SDS011;21562;49.476;6.086;2023-02-01T00:56:29;31.13;;;14.13;;
35444;SDS011;21562;49.476;6.086;2023-02-01T00:58:55;37.85;;;15.20;;
35444;SDS011;21562;49.476;6.086;2023-02-01T01:01:23;38.72;;;14.75;;
35444;SDS011;21562;49.476;6.086;2023-02-01T01:03:51;43.53;;;15.70;;
35444;SDS011;21562;49.476;6.086;2023-02-01T01:06:23;42.38;;;13.40;;
35444;SDS011;21562;49.476;6.086;2023-02-01T01:08:59;38.88;;;17.52;;
35444;SDS011;21562;49.476;6.086;2023-02-01T01:11:30;32.03;;;14.43;;
35444;SDS011;21562;49.476;6.086;2023-02-01T01:13:58;32.78;;;14.20;;
35444;SDS011;21562;49.476;6.086;2023-02-01T01:16:26;34.20;;;14.90;;
35444;SDS011;21562;49.476;6.086;2023-02-01T01:18:54;36.58;;;13.70;;
35444;SDS011;21562;49.476;6.086;2023-02-01T01:21:20;31.20;;;13.73;;
35444;SDS011;21562;49.476;6.086;2023-02-01T01:23:46;38.38;;;13.60;;
35444;SDS011;21562;49.476;6.086;2023-02-01T01:26:14;37.70;;;13.48;;
35444;SDS011;21562;49.476;6.086;2023-02-01T01:28:45;37.60;;;14.15;;
35444;SDS011;21562;49.476;6.086;2023-02-01T01:31:11;34.95;;;14.13;;
35444;SDS011;21562;49.476;6.086;2023-02-01T01:33:38;33.97;;;13.27;;
35444;SDS011;21562;49.476;6.086;2023-02-01T01:36:04;34.92;;;13.95;;
35444;SDS011;21562;49.476;6.086;2023-02-01T01:38:31;29.75;;;14.65;;
35444;SDS011;21562;49.476;6.086;2023-02-01T01:40:56;35.35;;;15.07;;
35444;SDS011;21562;49.476;6.086;2023-02-01T01:43:22;29.55;;;15.63;;
35444;SDS011;21562;49.476;6.086;2023-02-01T01:45:48;35.33;;;14.85;;
35444;SDS011;21562;49.476;6.086;2023-02-01T01:48:20;38.38;;;15.02;;
35444;SDS011;21562;49.476;6.086;2023-02-01T01:51:00;28.30;;;14.93;;
35444;SDS011;21562;49.476;6.086;2023-02-01T01:53:34;32.35;;;13.23;;
35444;SDS011;21562;49.476;6.086;2023-02-01T01:56:06;36.92;;;15.27;;
35444;SDS011;21562;49.476;6.086;2023-02-01T01:58:32;28.00;;;12.35;;
35444;SDS011;21562;49.476;6.086;2023-02-01T02:00:59;31.08;;;13.82;;
35444;SDS011;21562;49.476;6.086;2023-02-01T02:03:26;33.78;;;13.10;;
35444;SDS011;21562;49.476;6.086;2023-02-01T02:05:58;31.27;;;12.10;;
35444;SDS011;21562;49.476;6.086;2023-02-01T02:08:27;30.33;;;13.73;;
35444;SDS011;21562;49.476;6.086;2023-02-01T02:10:53;32.00;;;12.80;;
35444;SDS011;21562;49.476;6.086;2023-02-01T02:13:25;29.70;;;12.80;;
35444;SDS011;21562;49.476;6.086;2023-02-01T02:16:05;23.85;;;11.90;;
35444;SDS011;21562;49.476;6.086;2023-02-01T02:18:49;25.65;;;12.10;;
35444;SDS011;21562;49.476;6.086;2023-02-01T02:36:01;23.73;;;12.60;;
35444;SDS011;21562;49.476;6.086;2023-02-01T02:38:47;33.20;;;12.23;;
35444;SDS011;21562;49.476;6.086;2023-02-01T02:44:45;27.35;;;11.40;;
35444;SDS011;21562;49.476;6.086;2023-02-01T02:50:29;30.85;;;11.63;;
35444;SDS011;21562;49.476;6.086;2023-02-01T02:53:21;32.70;;;10.63;;
35444;SDS011;21562;49.476;6.086;2023-02-01T02:56:25;24.42;;;10.88;;
35444;SDS011;21562;49.476;6.086;2023-02-01T02:59:12;30.52;;;11.68;;
35444;SDS011;21562;49.476;6.086;2023-02-01T03:01:59;33.35;;;12.38;;
35444;SDS011;21562;49.476;6.086;2023-02-01T03:04:43;28.55;;;11.38;;
35444;SDS011;21562;49.476;6.086;2023-02-01T03:07:46;24.65;;;11.20;;
35444;SDS011;21562;49.476;6.086;2023-02-01T03:13:36;33.42;;;11.82;;
35444;SDS011;21562;49.476;6.086;2023-02-01T03:16:22;29.15;;;10.50;;
35444;SDS011;21562;49.476;6.086;2023-02-01T03:21:50;31.70;;;11.82;;
35444;SDS011;21562;49.476;6.086;2023-02-01T03:24:34;27.20;;;11.55;;
35444;SDS011;21562;49.476;6.086;2023-02-01T03:27:27;24.08;;;11.23;;
35444;SDS011;21562;49.476;6.086;2023-02-01T03:30:22;29.30;;;11.30;;
35444;SDS011;21562;49.476;6.086;2023-02-01T03:32:54;24.38;;;10.98;;
35444;SDS011;21562;49.476;6.086;2023-02-01T03:38:28;27.10;;;11.25;;
35444;SDS011;21562;49.476;6.086;2023-02-01T03:43:46;30.85;;;11.52;;
35444;SDS011;21562;49.476;6.086;2023-02-01T03:46:22;29.50;;;10.85;;
35444;SDS011;21562;49.476;6.086;2023-02-01T03:48:57;26.13;;;10.05;;
35444;SDS011;21562;49.476;6.086;2023-02-01T03:51:26;37.78;;;10.95;;
35444;SDS011;21562;49.476;6.086;2023-02-01T03:53:52;34.30;;;11.40;;
35444;SDS011;21562;49.476;6.086;2023-02-01T03:56:20;28.92;;;10.98;;
35444;SDS011;21562;49.476;6.086;2023-02-01T03:58:49;31.55;;;10.15;;
35444;SDS011;21562;49.476;6.086;2023-02-01T04:01:25;25.67;;;10.32;;
35444;SDS011;21562;49.476;6.086;2023-02-01T04:03:52;26.48;;;9.68;;
35444;SDS011;21562;49.476;6.086;2023-02-01T04:06:18;24.48;;;10.00;;
35444;SDS011;21562;49.476;6.086;2023-02-01T04:08:43;31.13;;;9.30;;
35444;SDS011;21562;49.476;6.086;2023-02-01T04:11:09;26.40;;;10.18;;
35444;SDS011;21562;49.476;6.086;2023-02-01T04:13:35;29.10;;;9.60;;
35444;SDS011;21562;49.476;6.086;2023-02-01T04:16:00;30.85;;;9.23;;
35444;SDS011;21562;49.476;6.086;2023-02-01T04:18:26;25.90;;;9.82;;
35444;SDS011;21562;49.476;6.086;2023-02-01T04:20:51;22.23;;;8.60;;
35444;SDS011;21562;49.476;6.086;2023-02-01T04:23:17;25.52;;;10.07;;
35444;SDS011;21562;49.476;6.086;2023-02-01T04:25:43;35.03;;;9.55;;
35444;SDS011;21562;49.476;6.086;2023-02-01T04:28:08;26.30;;;8.43;;
35444;SDS011;21562;49.476;6.086;2023-02-01T04:30:34;22.10;;;8.60;;
35444;SDS011;21562;49.476;6.086;2023-02-01T04:32:59;28.35;;;8.60;;
35444;SDS011;21562;49.476;6.086;2023-02-01T04:35:25;31.83;;;8.73;;
35444;SDS011;21562;49.476;6.086;2023-02-01T04:37:51;26.38;;;8.23;;
35444;SDS011;21562;49.476;6.086;2023-02-01T04:40:16;28.63;;;8.68;;
35444;SDS011;21562;49.476;6.086;2023-02-01T04:42:42;23.88;;;7.32;;
35444;SDS011;21562;49.476;6.086;2023-02-01T04:45:08;27.05;;;8.85;;
35444;SDS011;21562;49.476;6.086;2023-02-01T04:47:34;33.38;;;9.50;;
35444;SDS011;21562;49.476;6.086;2023-02-01T04:49:59;27.75;;;8.80;;
35444;SDS011;21562;49.476;6.086;2023-02-01T04:52:25;21.05;;;6.75;;
35444;SDS011;21562;49.476;6.086;2023-02-01T04:54:52;26.88;;;7.40;;
35444;SDS011;21562;49.476;6.086;2023-02-01T04:57:19;27.00;;;7.55;;
35444;SDS011;21562;49.476;6.086;2023-02-01T04:59:45;28.73;;;7.28;;
35444;SDS011;21562;49.476;6.086;2023-02-01T05:02:10;25.30;;;6.72;;
35444;SDS011;21562;49.476;6.086;2023-02-01T05:04:36;21.38;;;5.78;;
35444;SDS011;21562;49.476;6.086;2023-02-01T05:07:01;28.00;;;7.57;;
35444;SDS011;21562;49.476;6.086;2023-02-01T05:09:27;28.38;;;6.68;;
35444;SDS011;21562;49.476;6.086;2023-02-01T05:11:53;27.05;;;6.43;;
35444;SDS011;21562;49.476;6.086;2023-02-01T05:14:37;33.05;;;8.25;;
35444;SDS011;21562;49.476;6.086;2023-02-01T05:17:03;15.95;;;6.05;;
35444;SDS011;21562;49.476;6.086;2023-02-01T05:19:28;23.67;;;6.70;;
35444;SDS011;21562;49.476;6.086;2023-02-01T05:21:54;31.92;;;6.43;;
35444;SDS011;21562;49.476;6.086;2023-02-01T05:24:19;28.17;;;6.38;;
35444;SDS011;21562;49.476;6.086;2023-02-01T05:26:45;30.85;;;6.13;;
35444;SDS011;21562;49.476;6.086;2023-02-01T05:29:12;28.83;;;5.93;;
35444;SDS011;21562;49.476;6.086;2023-02-01T05:31:38;29.27;;;6.47;;
35444;SDS011;21562;49.476;6.086;2023-02-01T05:34:04;33.70;;;6.03;;
35444;SDS011;21562;49.476;6.086;2023-02-01T05:36:30;29.23;;;6.45;;
35444;SDS011;21562;49.476;6.086;2023-02-01T05:38:56;23.25;;;7.03;;
35444;SDS011;21562;49.476;6.086;2023-02-01T05:41:22;38.88;;;7.25;;
35444;SDS011;21562;49.476;6.086;2023-02-01T05:43:47;33.70;;;5.68;;
35444;SDS011;21562;49.476;6.086;2023-02-01T05:46:13;18.20;;;5.13;;
35444;SDS011;21562;49.476;6.086;2023-02-01T05:48:39;35.03;;;6.68;;
35444;SDS011;21562;49.476;6.086;2023-02-01T05:51:05;18.45;;;5.45;;
35444;SDS011;21562;49.476;6.086;2023-02-01T05:53:31;29.77;;;5.10;;
35444;SDS011;21562;49.476;6.086;2023-02-01T05:55:57;28.95;;;4.45;;
35444;SDS011;21562;49.476;6.086;2023-02-01T05:58:22;28.40;;;6.70;;
35444;SDS011;21562;49.476;6.086;2023-02-01T06:00:48;26.52;;;5.32;;
35444;SDS011;21562;49.476;6.086;2023-02-01T06:03:14;26.55;;;5.30;;
35444;SDS011;21562;49.476;6.086;2023-02-01T06:05:40;31.42;;;5.25;;
35444;SDS011;21562;49.476;6.086;2023-02-01T06:08:05;28.08;;;5.93;;
35444;SDS011;21562;49.476;6.086;2023-02-01T06:10:32;28.38;;;5.57;;
35444;SDS011;21562;49.476;6.086;2023-02-01T06:12:58;27.52;;;5.55;;
35444;SDS011;21562;49.476;6.086;2023-02-01T06:15:23;28.85;;;5.00;;
35444;SDS011;21562;49.476;6.086;2023-02-01T06:17:49;32.85;;;5.28;;
35444;SDS011;21562;49.476;6.086;2023-02-01T06:20:15;25.00;;;5.20;;
35444;SDS011;21562;49.476;6.086;2023-02-01T06:22:41;26.45;;;5.22;;
35444;SDS011;21562;49.476;6.086;2023-02-01T06:25:08;20.30;;;4.72;;
35444;SDS011;21562;49.476;6.086;2023-02-01T06:27:34;25.13;;;5.05;;
35444;SDS011;21562;49.476;6.086;2023-02-01T06:30:01;22.50;;;4.90;;
35444;SDS011;21562;49.476;6.086;2023-02-01T06:32:27;25.73;;;4.40;;
35444;SDS011;21562;49.476;6.086;2023-02-01T06:34:53;26.25;;;3.65;;
35444;SDS011;21562;49.476;6.086;2023-02-01T06:37:20;26.92;;;4.47;;
35444;SDS011;21562;49.476;6.086;2023-02-01T06:39:46;24.70;;;4.32;;
35444;SDS011;21562;49.476;6.086;2023-02-01T06:42:11;35.33;;;4.30;;
35444;SDS011;21562;49.476;6.086;2023-02-01T06:44:37;32.38;;;3.95;;
35444;SDS011;21562;49.476;6.086;2023-02-01T06:47:03;29.20;;;6.32;;
35444;SDS011;21562;49.476;6.086;2023-02-01T06:49:31;30.38;;;4.57;;
35444;SDS011;21562;49.476;6.086;2023-02-01T06:51:57;24.10;;;4.72;;
35444;SDS011;21562;49.476;6.086;2023-02-01T06:54:25;20.80;;;4.45;;
35444;SDS011;21562;49.476;6.086;2023-02-01T06:56:53;25.58;;;4.07;;
35444;SDS011;21562;49.476;6.086;2023-02-01T06:59:19;22.40;;;4.18;;
35444;SDS011;21562;49.476;6.086;2023-02-01T07:01:44;18.20;;;3.80;;
35444;SDS011;21562;49.476;6.086;2023-02-01T07:04:13;28.73;;;4.07;;
35444;SDS011;21562;49.476;6.086;2023-02-01T07:06:39;23.80;;;4.43;;
35444;SDS011;21562;49.476;6.086;2023-02-01T07:09:05;28.02;;;4.95;;
35444;SDS011;21562;49.476;6.086;2023-02-01T07:11:31;26.75;;;4.47;;
35444;SDS011;21562;49.476;6.086;2023-02-01T07:13:57;36.60;;;5.35;;
35444;SDS011;21562;49.476;6.086;2023-02-01T07:16:22;28.55;;;5.35;;
35444;SDS011;21562;49.476;6.086;2023-02-01T07:18:49;27.30;;;5.05;;
35444;SDS011;21562;49.476;6.086;2023-02-01T07:21:16;21.35;;;4.93;;
35444;SDS011;21562;49.476;6.086;2023-02-01T07:23:42;26.23;;;4.30;;
35444;SDS011;21562;49.476;6.086;2023-02-01T07:26:09;39.67;;;6.15;;
35444;SDS011;21562;49.476;6.086;2023-02-01T07:28:37;30.17;;;5.03;;
35444;SDS011;21562;49.476;6.086;2023-02-01T07:31:13;27.05;;;5.20;;
35444;SDS011;21562;49.476;6.086;2023-02-01T07:33:40;33.30;;;4.30;;
35444;SDS011;21562;49.476;6.086;2023-02-01T07:36:07;21.90;;;4.15;;
35444;SDS011;21562;49.476;6.086;2023-02-01T07:38:36;28.48;;;4.93;;
35444;SDS011;21562;49.476;6.086;2023-02-01T07:41:02;18.10;;;4.28;;
35444;SDS011;21562;49.476;6.086;2023-02-01T07:43:29;22.70;;;4.60;;
35444;SDS011;21562;49.476;6.086;2023-02-01T07:45:56;30.55;;;6.65;;
35444;SDS011;21562;49.476;6.086;2023-02-01T07:48:22;30.45;;;4.53;;
35444;SDS011;21562;49.476;6.086;2023-02-01T07:50:56;39.47;;;5.50;;
35444;SDS011;21562;49.476;6.086;2023-02-01T07:53:26;33.60;;;6.43;;
35444;SDS011;21562;49.476;6.086;2023-02-01T07:55:53;37.03;;;5.45;;
35444;SDS011;21562;49.476;6.086;2023-02-01T07:58:20;37.38;;;6.88;;
35444;SDS011;21562;49.476;6.086;2023-02-01T08:00:47;27.02;;;4.80;;
35444;SDS011;21562;49.476;6.086;2023-02-01T08:03:31;31.63;;;4.95;;
35444;SDS011;21562;49.476;6.086;2023-02-01T08:05:56;32.05;;;5.03;;
35444;SDS011;21562;49.476;6.086;2023-02-01T08:08:22;36.13;;;6.28;;
35444;SDS011;21562;49.476;6.086;2023-02-01T08:10:48;28.63;;;6.00;;
35444;SDS011;21562;49.476;6.086;2023-02-01T08:13:14;40.25;;;7.40;;
35444;SDS011;21562;49.476;6.086;2023-02-01T08:15:40;41.25;;;8.73;;
35444;SDS011;21562;49.476;6.086;2023-02-01T08:18:05;58.83;;;12.30;;
35444;SDS011;21562;49.476;6.086;2023-02-01T08:20:31;32.97;;;8.13;;
35444;SDS011;21562;49.476;6.086;2023-02-01T08:22:59;68.68;;;14.85;;
35444;SDS011;21562;49.476;6.086;2023-02-01T08:25:24;95.80;;;21.58;;
35444;SDS011;21562;49.476;6.086;2023-02-01T08:27:50;58.33;;;11.77;;
35444;SDS011;21562;49.476;6.086;2023-02-01T08:30:16;140.13;;;25.80;;
35444;SDS011;21562;49.476;6.086;2023-02-01T08:32:42;41.08;;;7.60;;
35444;SDS011;21562;49.476;6.086;2023-02-01T08:35:08;77.03;;;16.92;;
35444;SDS011;21562;49.476;6.086;2023-02-01T08:37:34;37.58;;;8.52;;
35444;SDS011;21562;49.476;6.086;2023-02-01T08:40:00;36.92;;;5.80;;
35444;SDS011;21562;49.476;6.086;2023-02-01T08:42:26;27.35;;;5.60;;
35444;SDS011;21562;49.476;6.086;2023-02-01T08:45:10;25.35;;;3.92;;
35444;SDS011;21562;49.476;6.086;2023-02-01T08:47:35;42.40;;;5.88;;
35444;SDS011;21562;49.476;6.086;2023-02-01T08:50:01;32.00;;;6.07;;
35444;SDS011;21562;49.476;6.086;2023-02-01T08:52:27;34.72;;;7.65;;
35444;SDS011;21562;49.476;6.086;2023-02-01T08:54:53;26.10;;;6.32;;
35444;SDS011;21562;49.476;6.086;2023-02-01T08:57:18;32.40;;;5.28;;
35444;SDS011;21562;49.476;6.086;2023-02-01T08:59:44;31.98;;;5.60;;
35444;SDS011;21562;49.476;6.086;2023-02-01T09:02:13;25.33;;;5.10;;
35444;SDS011;21562;49.476;6.086;2023-02-01T09:04:40;48.25;;;6.22;;
35444;SDS011;21562;49.476;6.086;2023-02-01T09:07:06;35.05;;;6.05;;
35444;SDS011;21562;49.476;6.086;2023-02-01T09:09:33;32.33;;;5.35;;
35444;SDS011;21562;49.476;6.086;2023-02-01T09:11:59;27.38;;;4.35;;
35444;SDS011;21562;49.476;6.086;2023-02-01T09:14:24;23.38;;;4.18;;
35444;SDS011;21562;49.476;6.086;2023-02-01T09:16:50;22.60;;;4.75;;
35444;SDS011;21562;49.476;6.086;2023-02-01T09:19:16;31.90;;;5.65;;
35444;SDS011;21562;49.476;6.086;2023-02-01T09:21:41;35.17;;;5.75;;
35444;SDS011;21562;49.476;6.086;2023-02-01T09:24:09;40.35;;;6.50;;
35444;SDS011;21562;49.476;6.086;2023-02-01T09:26:36;36.03;;;5.65;;
35444;SDS011;21562;49.476;6.086;2023-02-01T09:29:02;30.10;;;5.32;;
35444;SDS011;21562;49.476;6.086;2023-02-01T09:31:28;22.08;;;3.85;;
35444;SDS011;21562;49.476;6.086;2023-02-01T09:33:55;28.35;;;5.28;;
35444;SDS011;21562;49.476;6.086;2023-02-01T09:36:21;42.55;;;5.82;;
35444;SDS011;21562;49.476;6.086;2023-02-01T09:38:46;40.05;;;6.35;;
35444;SDS011;21562;49.476;6.086;2023-02-01T09:41:23;28.35;;;4.65;;
35444;SDS011;21562;49.476;6.086;2023-02-01T09:47:03;22.25;;;5.05;;
35444;SDS011;21562;49.476;6.086;2023-02-01T09:49:36;41.17;;;5.35;;
35444;SDS011;21562;49.476;6.086;2023-02-01T09:52:07;37.00;;;4.75;;
35444;SDS011;21562;49.476;6.086;2023-02-01T09:54:40;38.00;;;5.38;;
35444;SDS011;21562;49.476;6.086;2023-02-01T09:57:16;28.27;;;4.13;;
35444;SDS011;21562;49.476;6.086;2023-02-01T09:59:50;20.80;;;3.50;;
35444;SDS011;21562;49.476;6.086;2023-02-01T10:02:23;22.08;;;3.90;;
35444;SDS011;21562;49.476;6.086;2023-02-01T10:04:50;36.67;;;5.38;;
35444;SDS011;21562;49.476;6.086;2023-02-01T10:13:01;46.17;;;6.20;;
35444;SDS011;21562;49.476;6.086;2023-02-01T10:19:00;27.95;;;4.97;;
35444;SDS011;21562;49.476;6.086;2023-02-01T10:21:48;21.90;;;3.83;;
35444;SDS011;21562;49.476;6.086;2023-02-01T10:24:44;32.60;;;4.65;;
35444;SDS011;21562;49.476;6.086;2023-02-01T10:27:19;26.10;;;5.45;;
35444;SDS011;21562;49.476;6.086;2023-02-01T10:29:51;30.95;;;7.60;;
35444;SDS011;21562;49.476;6.086;2023-02-01T10:32:21;32.58;;;5.47;;
35444;SDS011;21562;49.476;6.086;2023-02-01T10:34:55;27.45;;;6.00;;
35444;SDS011;21562;49.476;6.086;2023-02-01T10:37:28;56.97;;;8.20;;
35444;SDS011;21562;49.476;6.086;2023-02-01T10:39:57;26.48;;;4.32;;
35444;SDS011;21562;49.476;6.086;2023-02-01T10:42:27;48.03;;;12.60;;
35444;SDS011;21562;49.476;6.086;2023-02-01T10:44:55;28.00;;;5.05;;
35444;SDS011;21562;49.476;6.086;2023-02-01T10:47:23;29.25;;;5.57;;
35444;SDS011;21562;49.476;6.086;2023-02-01T10:52:20;41.38;;;6.07;;
35444;SDS011;21562;49.476;6.086;2023-02-01T10:54:52;20.58;;;4.00;;
35444;SDS011;21562;49.476;6.086;2023-02-01T10:57:25;29.90;;;5.00;;
35444;SDS011;21562;49.476;6.086;2023-02-01T10:59:53;29.63;;;5.43;;
35444;SDS011;21562;49.476;6.086;2023-02-01T11:02:20;33.42;;;6.72;;
35444;SDS011;21562;49.476;6.086;2023-02-01T11:05:04;31.60;;;9.23;;
35444;SDS011;21562;49.476;6.086;2023-02-01T11:07:37;22.63;;;4.07;;
35444;SDS011;21562;49.476;6.086;2023-02-01T11:10:05;30.40;;;4.90;;
35444;SDS011;21562;49.476;6.086;2023-02-01T11:12:32;29.65;;;4.90;;
35444;SDS011;21562;49.476;6.086;2023-02-01T11:15:01;28.17;;;7.45;;
35444;SDS011;21562;49.476;6.086;2023-02-01T11:17:28;46.38;;;8.93;;
35444;SDS011;21562;49.476;6.086;2023-02-01T11:19:59;32.67;;;7.07;;
35444;SDS011;21562;49.476;6.086;2023-02-01T11:22:27;31.35;;;5.53;;
35444;SDS011;21562;49.476;6.086;2023-02-01T11:24:54;25.60;;;5.35;;
35444;SDS011;21562;49.476;6.086;2023-02-01T11:27:21;30.02;;;4.28;;
35444;SDS011;21562;49.476;6.086;2023-02-01T11:29:52;23.08;;;4.53;;
35444;SDS011;21562;49.476;6.086;2023-02-01T11:32:22;34.88;;;4.50;;
35444;SDS011;21562;49.476;6.086;2023-02-01T11:34:50;32.13;;;5.22;;
35444;SDS011;21562;49.476;6.086;2023-02-01T11:37:30;21.85;;;4.07;;
35444;SDS011;21562;49.476;6.086;2023-02-01T11:40:04;20.65;;;4.28;;
35444;SDS011;21562;49.476;6.086;2023-02-01T11:42:52;29.38;;;4.03;;
35444;SDS011;21562;49.476;6.086;2023-02-01T11:45:27;20.63;;;4.63;;
35444;SDS011;21562;49.476;6.086;2023-02-01T11:47:54;25.33;;;4.53;;
35444;SDS011;21562;49.476;6.086;2023-02-01T12:01:21;32.40;;;4.50;;
35444;SDS011;21562;49.476;6.086;2023-02-01T12:12:12;35.70;;;5.03;;
35444;SDS011;21562;49.476;6.086;2023-02-01T12:23:02;24.55;;;4.97;;
35444;SDS011;21562;49.476;6.086;2023-02-01T12:39:24;37.50;;;7.10;;
35444;SDS011;21562;49.476;6.086;2023-02-01T12:42:27;68.85;;;13.45;;
35444;SDS011;21562;49.476;6.086;2023-02-01T12:45:11;28.15;;;3.83;;
35444;SDS011;21562;49.476;6.086;2023-02-01T12:47:40;22.45;;;4.38;;
35444;SDS011;21562;49.476;6.086;2023-02-01T12:50:14;25.13;;;3.78;;
35444;SDS011;21562;49.476;6.086;2023-02-01T12:52:53;19.90;;;3.75;;
35444;SDS011;21562;49.476;6.086;2023-02-01T12:55:32;29.13;;;4.55;;
35444;SDS011;21562;49.476;6.086;2023-02-01T12:58:08;14.85;;;1.85;;
35444;SDS011;21562;49.476;6.086;2023-02-01T13:01:06;32.78;;;5.82;;
35444;SDS011;21562;49.476;6.086;2023-02-01T13:06:25;25.40;;;6.22;;
35444;SDS011;21562;49.476;6.086;2023-02-01T13:09:03;22.85;;;4.07;;
35444;SDS011;21562;49.476;6.086;2023-02-01T13:11:42;24.10;;;5.10;;
35444;SDS011;21562;49.476;6.086;2023-02-01T13:16:54;27.13;;;5.95;;
35444;SDS011;21562;49.476;6.086;2023-02-01T13:19:27;23.30;;;4.38;;
35444;SDS011;21562;49.476;6.086;2023-02-01T13:26:56;22.77;;;4.82;;
35444;SDS011;21562;49.476;6.086;2023-02-01T13:29:22;29.38;;;3.70;;
35444;SDS011;21562;49.476;6.086;2023-02-01T13:31:57;25.05;;;4.03;;
35444;SDS011;21562;49.476;6.086;2023-02-01T13:34:51;24.65;;;3.17;;
35444;SDS011;21562;49.476;6.086;2023-02-01T13:43:24;35.03;;;10.18;;
35444;SDS011;21562;49.476;6.086;2023-02-01T13:45:56;36.08;;;10.95;;
35444;SDS011;21562;49.476;6.086;2023-02-01T13:48:51;26.33;;;6.78;;
35444;SDS011;21562;49.476;6.086;2023-02-01T13:51:18;25.55;;;3.35;;
35444;SDS011;21562;49.476;6.086;2023-02-01T13:56:49;21.42;;;4.00;;
35444;SDS011;21562;49.476;6.086;2023-02-01T14:10:51;22.13;;;3.80;;
35444;SDS011;21562;49.476;6.086;2023-02-01T14:26:19;31.15;;;7.07;;
35444;SDS011;21562;49.476;6.086;2023-02-01T14:28:50;24.60;;;2.72;;
35444;SDS011;21562;49.476;6.086;2023-02-01T14:31:17;25.45;;;4.40;;
35444;SDS011;21562;49.476;6.086;2023-02-01T14:33:57;17.00;;;3.90;;
35444;SDS011;21562;49.476;6.086;2023-02-01T14:36:25;24.05;;;4.15;;
35444;SDS011;21562;49.476;6.086;2023-02-01T14:39:03;26.92;;;3.47;;
35444;SDS011;21562;49.476;6.086;2023-02-01T14:49:30;19.70;;;2.47;;
35444;SDS011;21562;49.476;6.086;2023-02-01T14:51:58;21.92;;;3.90;;
35444;SDS011;21562;49.476;6.086;2023-02-01T14:54:27;13.38;;;2.83;;
35444;SDS011;21562;49.476;6.086;2023-02-01T14:56:53;25.67;;;3.28;;
35444;SDS011;21562;49.476;6.086;2023-02-01T14:59:20;19.67;;;3.78;;
35444;SDS011;21562;49.476;6.086;2023-02-01T15:01:55;21.55;;;3.88;;
35444;SDS011;21562;49.476;6.086;2023-02-01T15:04:24;32.88;;;5.32;;
35444;SDS011;21562;49.476;6.086;2023-02-01T15:06:57;32.88;;;6.32;;
35444;SDS011;21562;49.476;6.086;2023-02-01T15:12:03;22.95;;;3.55;;
35444;SDS011;21562;49.476;6.086;2023-02-01T15:14:39;67.20;;;14.05;;
35444;SDS011;21562;49.476;6.086;2023-02-01T15:20:04;23.20;;;2.95;;
35444;SDS011;21562;49.476;6.086;2023-02-01T15:22:36;17.98;;;3.90;;
35444;SDS011;21562;49.476;6.086;2023-02-01T15:25:02;24.58;;;2.70;;
35444;SDS011;21562;49.476;6.086;2023-02-01T15:27:28;19.20;;;3.20;;
35444;SDS011;21562;49.476;6.086;2023-02-01T15:30:12;16.63;;;3.67;;
35444;SDS011;21562;49.476;6.086;2023-02-01T15:32:45;23.23;;;3.85;;
35444;SDS011;21562;49.476;6.086;2023-02-01T15:46:21;22.85;;;3.78;;
35444;SDS011;21562;49.476;6.086;2023-02-01T15:48:51;17.88;;;2.88;;
35444;SDS011;21562;49.476;6.086;2023-02-01T15:51:19;20.05;;;3.20;;
35444;SDS011;21562;49.476;6.086;2023-02-01T15:53:48;15.48;;;2.78;;
35444;SDS011;21562;49.476;6.086;2023-02-01T15:56:21;21.02;;;3.30;;
35444;SDS011;21562;49.476;6.086;2023-02-01T15:58:53;23.67;;;3.08;;
35444;SDS011;21562;49.476;6.086;2023-02-01T16:01:22;24.58;;;3.03;;
35444;SDS011;21562;49.476;6.086;2023-02-01T16:03:49;29.00;;;4.10;;
35444;SDS011;21562;49.476;6.086;2023-02-01T16:06:27;31.60;;;4.00;;
35444;SDS011;21562;49.476;6.086;2023-02-01T16:08:59;23.10;;;3.50;;
35444;SDS011;21562;49.476;6.086;2023-02-01T16:11:32;30.77;;;4.38;;
35444;SDS011;21562;49.476;6.086;2023-02-01T16:14:06;15.40;;;2.65;;
35444;SDS011;21562;49.476;6.086;2023-02-01T16:16:32;19.75;;;3.47;;
35444;SDS011;21562;49.476;6.086;2023-02-01T16:18:57;31.08;;;4.20;;
35444;SDS011;21562;49.476;6.086;2023-02-01T16:21:23;27.17;;;4.53;;
35444;SDS011;21562;49.476;6.086;2023-02-01T16:23:49;27.55;;;3.35;;
35444;SDS011;21562;49.476;6.086;2023-02-01T16:26:16;30.90;;;4.07;;
35444;SDS011;21562;49.476;6.086;2023-02-01T16:28:42;24.67;;;3.08;;
35444;SDS011;21562;49.476;6.086;2023-02-01T16:31:11;24.35;;;3.30;;
35444;SDS011;21562;49.476;6.086;2023-02-01T16:33:45;25.10;;;4.80;;
35444;SDS011;21562;49.476;6.086;2023-02-01T16:36:13;22.60;;;3.58;;
35444;SDS011;21562;49.476;6.086;2023-02-01T16:38:39;21.98;;;3.22;;
35444;SDS011;21562;49.476;6.086;2023-02-01T16:41:04;29.02;;;3.78;;
35444;SDS011;21562;49.476;6.086;2023-02-01T16:43:30;30.27;;;5.70;;
35444;SDS011;21562;49.476;6.086;2023-02-01T16:46:00;28.67;;;6.03;;
35444;SDS011;21562;49.476;6.086;2023-02-01T16:48:29;43.55;;;10.60;;
35444;SDS011;21562;49.476;6.086;2023-02-01T16:50:59;29.90;;;6.78;;
35444;SDS011;21562;49.476;6.086;2023-02-01T16:53:27;34.92;;;6.38;;
35444;SDS011;21562;49.476;6.086;2023-02-01T16:55:54;58.88;;;12.43;;
35444;SDS011;21562;49.476;6.086;2023-02-01T16:58:23;37.88;;;7.97;;
35444;SDS011;21562;49.476;6.086;2023-02-01T17:00:49;45.58;;;11.07;;
35444;SDS011;21562;49.476;6.086;2023-02-01T17:03:17;44.05;;;9.80;;
35444;SDS011;21562;49.476;6.086;2023-02-01T17:05:44;26.75;;;5.22;;
35444;SDS011;21562;49.476;6.086;2023-02-01T17:08:18;47.47;;;10.60;;
35444;SDS011;21562;49.476;6.086;2023-02-01T17:10:47;46.78;;;11.38;;
35444;SDS011;21562;49.476;6.086;2023-02-01T17:13:14;34.30;;;6.85;;
35444;SDS011;21562;49.476;6.086;2023-02-01T17:15:41;28.88;;;7.43;;
35444;SDS011;21562;49.476;6.086;2023-02-01T17:18:14;33.75;;;6.00;;
35444;SDS011;21562;49.476;6.086;2023-02-01T17:20:42;32.22;;;6.22;;
35444;SDS011;21562;49.476;6.086;2023-02-01T17:23:07;25.02;;;4.10;;